Time;durP1;ratioP1;P1;durP2;ratioP2;P2;SDS_P1;SDS_P2;PMS_P1;PMS_P2;Temp;Humidity;BMP_temperature;BMP_pressure;BME280_temperature;BME280_humidity;BME280_pressure;Samples;Min_cycle;Max_cycle;Signal;HPM_P1;HPM_P2
2020/12/27 00:02:13;;;;;;;10.27;6.25;;;;;;;3.81;87.94;95162.28;5089426;28;20524;-73
2020/12/27 00:04:39;;;;;;;11.65;6.15;;;;;;;3.71;88.71;95156.63;5090233;28;20044;-73
2020/12/27 00:07:07;;;;;;;16.88;7.47;;;;;;;3.81;89.70;95162.28;5090363;28;20085;-73
2020/12/27 00:09:42;;;;;;;11.18;6.10;;;;;;;3.83;89.37;95160.31;5089856;28;20123;-73
2020/12/27 00:12:10;;;;;;;11.63;6.22;;;;;;;3.98;88.31;95166.25;5088312;28;20506;-73
2020/12/27 00:14:36;;;;;;;13.50;8.10;;;;;;;4.00;87.37;95166.88;5090221;28;20032;-73
2020/12/27 00:17:12;;;;;;;21.48;11.25;;;;;;;4.04;87.60;95166.53;5088500;28;20718;-73
2020/12/27 00:19:39;;;;;;;;;;;;;;;3.95;87.45;95169.19;5090352;28;20073;-73
2020/12/27 00:22:05;;;;;;;8.70;5.47;;;;;;;3.72;88.00;95160.78;5088633;28;20351;-73
2020/12/27 00:24:32;;;;;;;12.73;6.78;;;;;;;3.61;88.12;95160.28;5089827;28;20044;-72
2020/12/27 00:26:58;;;;;;;7.72;5.32;;;;;;;3.68;88.68;95182.75;5089842;28;20047;-70
2020/12/27 00:29:25;;;;;;;10.88;5.95;;;;;;;3.63;88.96;95181.50;5088913;28;20118;-70
2020/12/27 00:31:52;;;;;;;11.65;6.90;;;;;;;3.60;89.37;95184.44;5089391;28;20496;-73
2020/12/27 00:34:19;;;;;;;18.33;8.88;;;;;;;3.57;89.73;95176.28;5088430;28;20044;-72
2020/12/27 00:36:46;;;;;;;16.25;9.07;;;;;;;3.60;89.91;95175.91;5088486;28;20064;-72
2020/12/27 00:39:13;;;;;;;16.33;8.15;;;;;;;3.61;90.06;95175.72;5089732;28;20134;-72
2020/12/27 00:41:39;;;;;;;14.95;6.97;;;;;;;3.63;90.41;95181.50;5089535;28;20566;-73
2020/12/27 00:44:06;;;;;;;14.80;7.03;;;;;;;3.66;90.69;95174.41;5089575;28;20036;-72
2020/12/27 00:46:33;;;;;;;12.20;6.95;;;;;;;3.54;90.37;95172.25;5088020;28;20051;-73
2020/12/27 00:48:59;;;;;;;8.75;5.43;;;;;;;3.61;90.24;95173.16;5088201;28;20055;-73
2020/12/27 00:51:27;;;;;;;10.40;5.82;;;;;;;3.59;90.26;95175.09;5087977;28;20052;-69
2020/12/27 00:53:54;;;;;;;14.85;6.30;;;;;;;3.75;90.42;95168.97;5088156;28;20036;-70
2020/12/27 00:56:22;;;;;;;10.45;6.65;;;;;;;3.82;90.12;95166.47;5089300;28;20414;-70
2020/12/27 00:59:05;;;;;;;13.52;6.78;;;;;;;3.76;89.76;95154.28;5086281;28;20051;-70
2020/12/27 01:01:32;;;;;;;14.02;7.03;;;;;;;3.86;89.85;95165.13;5087263;28;20036;-70
2020/12/27 01:04:10;;;;;;;14.05;6.68;;;;;;;3.74;90.38;95156.25;5087393;28;20056;-70
2020/12/27 01:06:38;;;;;;;13.10;7.03;;;;;;;3.65;91.20;95150.41;5089076;28;20036;-70
2020/12/27 01:09:07;;;;;;;14.27;6.50;;;;;;;3.90;91.29;95176.66;5086937;28;20048;-69
2020/12/27 01:11:33;;;;;;;9.65;6.20;;;;;;;3.86;91.24;95175.44;5088022;28;20032;-70
2020/12/27 01:14:00;;;;;;;13.05;6.88;;;;;;;3.56;91.64;95180.59;5070503;28;20044;-70
2020/12/27 01:16:27;;;;;;;10.77;6.60;;;;;;;3.38;93.16;95177.59;5085751;28;20040;-70
2020/12/27 01:18:53;;;;;;;18.38;7.40;;;;;;;3.38;93.08;95169.88;5070713;28;20047;-70
2020/12/27 01:21:31;;;;;;;13.32;8.05;;;;;;;3.42;93.65;95168.53;5087737;28;20056;-70
2020/12/27 01:24:04;;;;;;;11.57;7.03;;;;;;;3.52;93.70;95163.13;5087545;28;20040;-70
2020/12/27 01:26:36;;;;;;;10.68;7.00;;;;;;;3.64;93.67;95157.34;5087545;28;20391;-69
2020/12/27 01:29:04;;;;;;;14.45;7.30;;;;;;;3.45;94.58;95168.19;5088183;28;20059;-69
2020/12/27 01:31:32;;;;;;;16.52;7.60;;;;;;;3.37;94.93;95171.66;5086854;28;20048;-69
2020/12/27 01:34:05;;;;;;;12.07;7.68;;;;;;;3.25;96.60;95173.84;5087127;28;20052;-69
2020/12/27 01:36:38;;;;;;;13.55;7.72;;;;;;;3.35;95.31;95170.22;5087275;28;20036;-69
2020/12/27 01:39:12;;;;;;;14.10;8.25;;;;;;;3.54;95.04;95161.16;5086215;28;20048;-69
2020/12/27 01:41:39;;;;;;;13.10;7.43;;;;;;;3.68;94.48;95144.91;5087222;28;21840;-70
2020/12/27 01:44:14;;;;;;;16.02;8.20;;;;;;;3.72;93.41;95153.06;5086773;28;20040;-69
2020/12/27 01:46:47;;;;;;;12.23;7.38;;;;;;;3.41;93.80;95156.66;5085676;28;20064;-70
2020/12/27 01:49:24;;;;;;;17.70;9.02;;;;;;;3.38;93.76;95151.84;5086930;28;20101;-69
2020/12/27 01:51:51;;;;;;;13.07;8.40;;;;;;;3.51;93.50;95136.59;5085561;28;20047;-70
2020/12/27 01:54:33;;;;;;;14.82;8.65;;;;;;;3.41;94.50;95146.34;5086650;28;20123;-70
2020/12/27 01:57:20;;;;;;;15.38;9.48;;;;;;;3.25;95.66;95132.66;5085910;28;20059;-71
2020/12/27 01:59:56;;;;;;;17.25;9.02;;;;;;;3.48;95.43;95136.16;5086149;28;20048;-70
2020/12/27 02:02:53;;;;;;;16.75;8.10;;;;;;;3.74;94.72;95140.81;5086350;28;20040;-70
2020/12/27 02:05:25;;;;;;;13.45;8.25;;;;;;;3.79;94.51;95138.50;5086469;28;20047;-71
2020/12/27 02:07:52;;;;;;;13.52;8.50;;;;;;;3.41;95.20;95136.06;5086580;28;20048;-70
2020/12/27 02:10:31;;;;;;;16.00;9.60;;;;;;;3.04;96.59;95120.53;5085931;28;20048;-70
2020/12/27 02:12:58;;;;;;;16.85;9.80;;;;;;;3.02;98.83;95132.75;5069806;28;20510;-70
2020/12/27 02:15:24;;;;;;;20.48;10.23;;;;;;;2.90;99.93;95115.34;5086531;28;20064;-70
2020/12/27 02:18:10;;;;;;;18.42;10.57;;;;;;;2.97;100.00;95118.81;5085088;28;20047;-70
2020/12/27 02:20:39;;;;;;;17.15;9.20;;;;;;;3.04;99.61;95119.69;5086412;28;20040;-70
2020/12/27 02:23:15;;;;;;;17.90;9.80;;;;;;;3.07;99.80;95119.34;5085324;28;20044;-70
2020/12/27 02:26:05;;;;;;;16.30;9.25;;;;;;;2.93;100.00;95117.56;5087243;28;20127;-70
2020/12/27 02:28:40;;;;;;;17.90;9.18;;;;;;;2.77;100.00;95109.03;5086163;28;20055;-70
2020/12/27 02:31:12;;;;;;;17.13;9.77;;;;;;;2.73;100.00;95117.28;5087645;28;20544;-70
2020/12/27 02:33:49;;;;;;;19.40;11.27;;;;;;;2.78;100.00;95120.91;5085327;28;20048;-71
2020/12/27 02:36:16;;;;;;;18.63;11.20;;;;;;;2.76;100.00;95107.44;5085004;28;20071;-70
2020/12/27 02:38:45;;;;;;;24.70;11.95;;;;;;;2.69;100.00;95111.69;5085959;28;20066;-70
2020/12/27 02:41:20;;;;;;;20.58;12.48;;;;;;;2.68;100.00;95104.94;5084767;28;20036;-70
2020/12/27 02:43:58;;;;;;;20.27;11.73;;;;;;;2.70;100.00;95100.41;5087148;28;20032;-70
2020/12/27 02:46:26;;;;;;;18.98;10.77;;;;;;;2.69;100.00;95096.25;5085918;28;20072;-70
2020/12/27 02:49:19;;;;;;;22.23;11.52;;;;;;;2.60;100.00;95092.16;5078666;28;20054;-70
2020/12/27 02:51:51;;;;;;;20.42;11.90;;;;;;;2.66;100.00;95086.31;5086255;28;20064;-70
2020/12/27 02:54:17;;;;;;;18.75;11.60;;;;;;;2.64;100.00;95094.19;5085913;28;20044;-70
2020/12/27 02:56:44;;;;;;;19.73;11.75;;;;;;;2.49;100.00;95091.59;5085985;28;20554;-70
2020/12/27 02:59:11;;;;;;;22.40;13.40;;;;;;;2.58;100.00;95092.34;5087156;28;20168;-70
2020/12/27 03:01:38;;;;;;;19.38;12.88;;;;;;;2.67;100.00;95087.91;5085077;28;20090;-70
2020/12/27 03:04:33;;;;;;;23.25;11.73;;;;;;;2.64;100.00;95083.91;5072587;28;20051;-70
2020/12/27 03:07:05;;;;;;;23.90;13.15;;;;;;;2.72;100.00;95101.06;5086156;28;20068;-70
2020/12/27 03:10:04;;;;;;;25.83;12.45;;;;;;;2.79;100.00;95086.53;5079269;28;20165;-70
2020/12/27 03:12:37;;;;;;;22.42;12.68;;;;;;;2.95;100.00;95100.19;5085762;28;20097;-70
2020/12/27 03:15:03;;;;;;;24.83;13.65;;;;;;;2.84;100.00;95097.06;5087290;28;20044;-71
2020/12/27 03:17:48;;;;;;;25.00;12.15;;;;;;;2.90;100.00;95102.47;5085859;28;20059;-70
2020/12/27 03:20:50;;;;;;;19.98;12.40;;;;;;;2.69;100.00;95080.81;5084782;28;20078;-70
2020/12/27 03:23:17;;;;;;;21.70;13.48;;;;;;;2.84;100.00;95094.47;5088456;28;20039;-70
2020/12/27 03:25:51;;;;;;;22.55;13.75;;;;;;;2.89;100.00;95095.75;5089668;28;20422;-70
2020/12/27 03:28:18;;;;;;;23.45;14.18;;;;;;;2.87;100.00;95101.84;5089635;28;20072;-70
2020/12/27 03:30:51;;;;;;;27.65;13.52;;;;;;;3.05;100.00;95095.56;5087917;28;20044;-69
2020/12/27 03:33:24;;;;;;;26.20;14.23;;;;;;;2.86;100.00;95092.56;5089456;28;20040;-70
2020/12/27 03:36:01;;;;;;;25.33;14.02;;;;;;;2.81;100.00;95100.00;5089617;28;20093;-70
2020/12/27 03:38:36;;;;;;;26.70;15.00;;;;;;;2.81;100.00;95100.00;5089726;28;20512;-70
2020/12/27 03:41:07;;;;;;;24.48;15.05;;;;;;;2.82;100.00;95100.78;5089516;28;20059;-71
2020/12/27 03:44:10;;;;;;;25.05;14.35;;;;;;;2.87;100.00;95094.13;5090433;28;20040;-71
2020/12/27 03:46:56;;;;;;;23.73;14.18;;;;;;;3.11;100.00;95084.56;5090072;28;20142;-71
2020/12/27 03:49:48;;;;;;;22.45;12.35;;;;;;;3.13;100.00;95071.53;5089081;28;20515;-71
2020/12/27 03:52:22;;;;;;;21.23;12.60;;;;;;;3.04;100.00;95083.69;5089317;28;20505;-71
2020/12/27 03:55:09;;;;;;;28.90;13.27;;;;;;;3.06;100.00;95076.56;5089110;28;20044;-71
2020/12/27 03:57:48;;;;;;;26.00;13.95;;;;;;;3.04;100.00;95068.22;5074080;28;20040;-71
2020/12/27 04:00:34;;;;;;;25.83;13.23;;;;;;;3.23;100.00;95072.84;5089236;28;20040;-71
2020/12/27 04:03:17;;;;;;;24.42;12.57;;;;;;;3.08;100.00;95048.91;5089011;28;20508;-71
2020/12/27 04:05:45;;;;;;;22.42;13.35;;;;;;;3.38;100.00;95080.53;5088916;28;20047;-71
2020/12/27 04:08:12;;;;;;;24.30;12.48;;;;;;;3.38;100.00;95059.16;5089228;28;20048;-71
2020/12/27 04:10:42;;;;;;;22.38;12.93;;;;;;;3.52;100.00;95076.34;5088754;28;20123;-71
2020/12/27 04:13:09;;;;;;;23.88;13.30;;;;;;;3.62;100.00;95076.88;5088765;28;20044;-71
2020/12/27 04:15:37;;;;;;;24.67;13.55;;;;;;;3.64;100.00;95069.75;5088582;28;20123;-72
2020/12/27 04:18:13;;;;;;;24.40;14.55;;;;;;;3.70;100.00;95070.03;5087190;28;20040;-72
2020/12/27 04:20:58;;;;;;;22.95;13.05;;;;;;;3.78;100.00;95069.88;5089704;28;20468;-72
2020/12/27 04:23:25;;;;;;;25.77;13.35;;;;;;;3.78;100.00;95069.88;5090052;28;20137;-72
2020/12/27 04:25:51;;;;;;;67.68;30.83;;;;;;;3.57;100.00;95063.75;5088279;28;20035;-72
2020/12/27 04:28:18;;;;;;;39.95;21.05;;;;;;;3.60;100.00;95053.09;5088351;28;20101;-72
2020/12/27 04:30:44;;;;;;;33.72;21.48;;;;;;;3.67;100.00;95058.28;5088641;28;20123;-72
2020/12/27 04:33:47;;;;;;;20.17;13.57;;;;;;;3.83;100.00;95072.72;5084905;28;20044;-72
2020/12/27 04:36:23;;;;;;;34.75;18.52;;;;;;;3.98;100.00;95060.59;5088383;28;20438;-72
2020/12/27 04:38:51;;;;;;;29.80;14.23;;;;;;;3.98;100.00;95054.63;5088038;28;20506;-72
2020/12/27 04:41:19;;;;;;;23.30;12.85;;;;;;;4.08;100.00;95059.50;5071393;28;20077;-71
2020/12/27 04:43:49;;;;;;;30.90;15.32;;;;;;;3.95;99.42;95036.97;5088045;28;20135;-72
2020/12/27 04:46:16;;;;;;;35.22;18.75;;;;;;;3.89;99.31;95063.47;5088016;28;20086;-72
2020/12/27 04:48:57;;;;;;;28.88;15.48;;;;;;;3.83;99.86;95067.56;5087896;28;20050;-72
2020/12/27 04:51:32;;;;;;;22.23;13.63;;;;;;;3.84;99.81;95064.03;5088286;28;20106;-72
2020/12/27 04:54:27;;;;;;;28.83;15.63;;;;;;;3.85;100.00;95057.88;5087971;28;20117;-72
2020/12/27 04:57:04;;;;;;;24.63;14.18;;;;;;;4.01;99.57;95062.00;5073005;28;20076;-72
2020/12/27 04:59:31;;;;;;;25.17;14.60;;;;;;;3.69;99.35;95042.66;5086941;28;20052;-71
2020/12/27 05:01:57;;;;;;;30.17;16.08;;;;;;;3.60;100.00;95068.53;5068875;28;20048;-72
2020/12/27 05:04:45;;;;;;;28.27;15.70;;;;;;;3.59;100.00;95061.78;5086628;28;20538;-72
2020/12/27 05:07:30;;;;;;;27.63;14.55;;;;;;;3.79;100.00;95066.34;5087830;28;20040;-72
2020/12/27 05:10:15;;;;;;;29.67;15.05;;;;;;;3.87;100.00;95068.81;5087833;28;20063;-71
2020/12/27 05:12:48;;;;;;;37.28;18.50;;;;;;;3.77;100.00;95088.94;5087766;28;20044;-72
2020/12/27 05:15:15;;;;;;;30.80;17.27;;;;;;;3.97;100.00;95079.59;5086530;28;20563;-72
2020/12/27 05:17:43;;;;;;;32.70;18.80;;;;;;;4.20;100.00;95074.28;5068106;28;20047;-72
2020/12/27 05:20:14;;;;;;;37.30;19.05;;;;;;;4.34;99.55;95070.03;5087310;28;20048;-72
2020/12/27 05:22:47;;;;;;;46.00;23.08;;;;;;;4.47;98.42;95074.50;5087322;28;20044;-71
2020/12/27 05:25:22;;;;;;;39.65;20.13;;;;;;;4.54;97.59;95074.56;5087477;28;20071;-72
2020/12/27 05:28:08;;;;;;;44.55;20.40;;;;;;;4.45;96.93;95065.34;5087193;28;20044;-72
2020/12/27 05:30:57;;;;;;;45.17;21.90;;;;;;;4.65;96.20;95076.63;5088622;28;20510;-72
2020/12/27 05:33:44;;;;;;;33.67;18.98;;;;;;;4.75;95.45;95077.09;5087121;28;20982;-72
2020/12/27 05:36:33;;;;;;;37.35;18.50;;;;;;;4.70;94.36;95074.28;5087581;28;20040;-72
2020/12/27 05:39:30;;;;;;;38.42;17.90;;;;;;;4.50;94.99;95078.47;5103690;28;20422;-72
2020/12/27 05:42:14;;;;;;;32.00;18.05;;;;;;;4.52;95.02;95081.66;5085429;28;20046;-73
2020/12/27 05:44:40;;;;;;;29.92;16.98;;;;;;;4.59;94.81;95072.19;5087022;28;20040;-71
2020/12/27 05:47:10;;;;;;;35.80;17.00;;;;;;;4.69;94.83;95072.66;5086201;28;20047;-72
2020/12/27 05:49:38;;;;;;;39.38;22.83;;;;;;;4.69;94.44;95072.66;5086903;28;20509;-71
2020/12/27 05:52:16;;;;;;;46.33;25.30;;;;;;;4.72;94.40;95069.72;5086895;28;20523;-73
2020/12/27 05:54:56;;;;;;;43.47;23.75;;;;;;;4.54;94.64;95048.78;5086754;28;20048;-72
2020/12/27 05:57:28;;;;;;;39.30;20.80;;;;;;;4.61;94.68;95065.09;5086431;28;20113;-73
2020/12/27 05:59:55;;;;;;;45.95;21.83;;;;;;;4.45;95.74;95080.81;5088101;28;20051;-73
2020/12/27 06:02:42;;;;;;;61.00;34.38;;;;;;;4.07;97.59;95063.03;5088316;28;20044;-72
2020/12/27 06:05:33;;;;;;;57.53;34.10;;;;;;;4.26;97.46;95072.72;5085806;28;20044;-73
2020/12/27 06:08:53;;;;;;;36.53;19.08;;;;;;;4.14;98.05;95069.06;5086948;28;20086;-72
2020/12/27 06:11:35;;;;;;;42.60;21.30;;;;;;;4.19;97.84;95067.50;5083548;28;20173;-72
2020/12/27 06:14:14;;;;;;;34.10;18.40;;;;;;;4.23;97.81;95062.78;5086105;28;20040;-72
2020/12/27 06:17:30;;;;;;;30.05;14.52;;;;;;;4.33;97.33;95078.75;5087032;28;20117;-72
2020/12/27 06:20:07;;;;;;;27.83;14.32;;;;;;;3.89;98.46;95077.16;5085623;28;20059;-72
2020/12/27 06:22:44;;;;;;;51.33;26.10;;;;;;;3.73;100.00;95077.41;5085576;28;20048;-72
2020/12/27 06:25:28;;;;;;;41.28;22.90;;;;;;;3.70;100.00;95077.75;5085407;28;20044;-73
2020/12/27 06:27:56;;;;;;;28.25;15.32;;;;;;;3.63;100.00;95068.16;5085500;28;20072;-73
2020/12/27 06:30:44;;;;;;;34.72;15.90;;;;;;;3.54;100.00;95069.25;5084031;28;20497;-72
2020/12/27 06:33:51;;;;;;;32.47;15.50;;;;;;;3.55;100.00;95081.16;5073178;28;20486;-72
2020/12/27 06:36:32;;;;;;;67.05;28.00;;;;;;;3.39;100.00;95081.38;5085969;28;20064;-72
2020/12/27 06:39:26;;;;;;;65.45;26.52;;;;;;;3.49;100.00;95071.56;5086113;28;20052;-73
2020/12/27 06:42:14;;;;;;;104.93;39.78;;;;;;;3.40;100.00;95067.50;5081202;28;20453;-72
2020/12/27 06:45:25;;;;;;;54.08;26.92;;;;;;;3.51;100.00;95074.78;5085599;28;20166;-72
2020/12/27 06:48:30;;;;;;;52.50;28.23;;;;;;;3.49;100.00;95066.41;5085250;28;20126;-72
2020/12/27 06:51:45;;;;;;;56.08;29.80;;;;;;;3.70;100.00;95062.28;5084873;28;20051;-72
2020/12/27 06:54:43;;;;;;;45.08;24.40;;;;;;;3.72;100.00;95050.03;5084062;28;20074;-71
2020/12/27 06:57:43;;;;;;;37.95;20.77;;;;;;;3.99;100.00;95064.75;5085682;28;20502;-71
2020/12/27 07:00:31;;;;;;;138.63;73.45;;;;;;;4.04;100.00;95068.59;5087127;28;20032;-71
2020/12/27 07:03:23;;;;;;;126.35;61.67;;;;;;;3.89;100.00;95053.97;5088042;28;20177;-71
2020/12/27 07:05:50;;;;;;;58.95;32.75;;;;;;;4.15;100.00;95055.97;5090831;28;20126;-72
2020/12/27 07:08:40;;;;;;;60.30;32.78;;;;;;;4.09;100.00;95043.84;5090076;28;20035;-72
2020/12/27 07:11:07;;;;;;;60.13;32.03;;;;;;;4.10;100.00;95037.69;5089553;28;20119;-72
2020/12/27 07:13:41;;;;;;;71.63;36.97;;;;;;;4.04;100.00;95028.13;5089397;28;20135;-72
2020/12/27 07:16:11;;;;;;;59.20;31.13;;;;;;;4.00;100.00;95032.84;5088374;28;20044;-72
2020/12/27 07:18:37;;;;;;;50.15;25.35;;;;;;;4.00;100.00;95053.47;5088113;28;20620;-73
2020/12/27 07:21:11;;;;;;;38.85;16.88;;;;;;;3.96;100.00;95062.56;5087054;28;20106;-72
2020/12/27 07:23:43;;;;;;;;;;;;;;;4.13;100.00;95062.31;5090997;28;20100;-73
2020/12/27 07:26:11;;;;;;;123.15;59.88;;;;;;;4.23;100.00;95065.34;5088931;28;20324;-73
2020/12/27 07:28:38;;;;;;;154.98;77.95;;;;;;;4.25;100.00;95050.53;5089880;28;20047;-72
2020/12/27 07:31:05;;;;;;;114.32;58.92;;;;;;;4.33;100.00;95057.31;5090193;28;20505;-72
2020/12/27 07:33:32;;;;;;;76.90;44.83;;;;;;;4.31;100.00;95062.66;5089744;28;20066;-72
2020/12/27 07:36:01;;;;;;;76.55;46.30;;;;;;;4.29;100.00;95062.06;5089712;28;20051;-72
2020/12/27 07:39:00;;;;;;;72.50;41.83;;;;;;;4.31;100.00;95065.25;5089984;28;20077;-73
2020/12/27 07:41:31;;;;;;;45.90;26.60;;;;;;;4.22;100.00;95050.88;5088671;28;20040;-72
2020/12/27 07:43:58;;;;;;;63.33;34.40;;;;;;;4.14;100.00;95048.44;5089155;28;20032;-72
2020/12/27 07:46:26;;;;;;;57.47;34.08;;;;;;;4.18;100.00;95039.38;5089459;28;20535;-73
2020/12/27 07:48:54;;;;;;;51.30;29.35;;;;;;;4.32;100.00;95035.09;5089767;28;20536;-73
2020/12/27 07:51:25;;;;;;;55.22;31.85;;;;;;;4.26;100.00;95021.16;5089260;28;20478;-73
2020/12/27 07:53:56;;;;;;;53.58;31.15;;;;;;;4.38;100.00;95019.69;5088598;28;20047;-73
2020/12/27 07:56:26;;;;;;;51.05;30.83;;;;;;;4.45;100.00;95024.06;5089146;28;20044;-73
2020/12/27 07:58:55;;;;;;;53.75;28.55;;;;;;;4.42;100.00;95029.63;5088609;28;20555;-73
2020/12/27 08:01:29;;;;;;;72.43;37.75;;;;;;;4.35;100.00;95050.97;5088756;28;20043;-73
2020/12/27 08:04:05;;;;;;;71.50;34.55;;;;;;;4.49;100.00;95040.78;5089745;28;20425;-73
2020/12/27 08:06:34;;;;;;;64.38;38.42;;;;;;;4.52;100.00;95040.41;5088008;28;20036;-73
2020/12/27 08:09:04;;;;;;;63.30;36.85;;;;;;;4.64;100.00;95044.06;5089200;28;20050;-73
2020/12/27 08:11:32;;;;;;;56.83;29.65;;;;;;;4.62;100.00;95046.03;5088146;28;20044;-73
2020/12/27 08:14:01;;;;;;;50.85;28.75;;;;;;;4.52;100.00;95030.06;5089761;28;20493;-73
2020/12/27 08:16:28;;;;;;;41.05;25.67;;;;;;;4.57;100.00;95048.38;5089146;28;20107;-74
2020/12/27 08:19:20;;;;;;;12.25;7.95;;;;;;;4.65;100.00;95035.34;5086567;28;20119;-73
2020/12/27 08:21:47;;;;;;;7.63;5.05;;;;;;;4.63;100.00;95027.00;5085820;28;20117;-73
2020/12/27 08:24:20;;;;;;;8.55;4.82;;;;;;;4.68;100.00;95034.97;5089605;28;20028;-74
2020/12/27 08:26:48;;;;;;;6.88;4.72;;;;;;;4.66;100.00;95029.19;5087808;28;20513;-73
2020/12/27 08:29:19;;;;;;;7.05;4.35;;;;;;;4.87;100.00;95050.75;5088946;28;20401;-73
2020/12/27 08:32:03;;;;;;;9.75;6.55;;;;;;;4.75;100.00;95011.78;5089286;28;20047;-73
2020/12/27 08:34:30;;;;;;;8.88;6.03;;;;;;;4.90;100.00;95016.84;5088290;28;20449;-73
2020/12/27 08:36:59;;;;;;;29.02;22.38;;;;;;;4.89;100.00;95017.81;5087943;28;20040;-73
2020/12/27 08:40:00;;;;;;;24.80;18.17;;;;;;;4.92;100.00;95005.31;5088207;28;20044;-73
2020/12/27 08:42:41;;;;;;;13.38;9.52;;;;;;;4.85;100.00;94988.22;5084908;28;20150;-73
2020/12/27 08:45:20;;;;;;;10.20;9.05;;;;;;;4.99;100.00;95000.19;5087647;28;20754;-73
2020/12/27 08:48:24;;;;;;;7.40;4.60;;;;;;;5.07;100.00;94997.44;5087992;28;20040;-74
2020/12/27 08:50:54;;;;;;;5.93;3.87;;;;;;;5.09;100.00;94985.13;5087089;28;20064;-74
2020/12/27 08:53:21;;;;;;;5.97;4.38;;;;;;;5.08;100.00;94993.88;5086890;28;20040;-74
2020/12/27 08:55:47;;;;;;;6.43;4.28;;;;;;;5.13;100.00;94980.38;5087007;28;20055;-73
2020/12/27 08:58:21;;;;;;;5.97;4.10;;;;;;;5.14;100.00;94971.66;5088148;28;20086;-73
2020/12/27 09:00:48;;;;;;;7.90;4.38;;;;;;;5.16;100.00;94973.03;5088782;28;20039;-72
2020/12/27 09:03:14;;;;;;;6.80;5.10;;;;;;;5.27;100.00;94986.41;5088678;28;20486;-73
2020/12/27 09:05:41;;;;;;;5.32;3.88;;;;;;;5.22;100.00;94994.75;5088895;28;20044;-74
2020/12/27 09:08:18;;;;;;;4.70;3.88;;;;;;;5.21;100.00;94987.97;5070754;28;20122;-73
2020/12/27 09:10:45;;;;;;;4.20;3.50;;;;;;;5.23;100.00;94998.91;5087438;28;20118;-74
2020/12/27 09:13:14;;;;;;;5.57;3.95;;;;;;;5.23;100.00;94985.19;5089272;28;20081;-73
2020/12/27 09:15:48;;;;;;;10.50;3.45;;;;;;;5.24;100.00;94971.28;5088472;28;20448;-74
2020/12/27 09:18:26;;;;;;;5.72;4.22;;;;;;;5.30;100.00;94978.28;5086366;28;20054;-74
2020/12/27 09:21:05;;;;;;;5.18;3.88;;;;;;;5.34;100.00;94966.56;5086852;28;20036;-74
2020/12/27 09:23:31;;;;;;;10.38;6.38;;;;;;;5.37;100.00;94955.84;5087471;28;20036;-74
2020/12/27 09:26:09;;;;;;;4.95;4.10;;;;;;;5.39;100.00;94969.34;5088109;28;20039;-74
2020/12/27 09:28:38;;;;;;;5.57;4.15;;;;;;;5.15;100.00;94932.75;5087454;28;20036;-75
2020/12/27 09:31:10;;;;;;;5.55;3.42;;;;;;;5.44;100.00;94961.81;5088711;28;20040;-74
2020/12/27 09:33:54;;;;;;;6.10;4.50;;;;;;;5.43;100.00;94952.47;5087701;28;20059;-74
2020/12/27 09:36:20;;;;;;;9.33;3.20;;;;;;;5.38;100.00;94952.25;5087595;28;20035;-73
2020/12/27 09:38:48;;;;;;;5.07;3.97;;;;;;;5.38;100.00;94947.09;5087198;28;20468;-73
2020/12/27 09:41:20;;;;;;;6.60;4.25;;;;;;;5.36;100.00;94949.84;5087280;28;20047;-72
2020/12/27 09:43:47;;;;;;;6.82;4.70;;;;;;;5.24;100.00;94919.63;5088213;28;20413;-74
2020/12/27 09:46:47;;;;;;;7.18;4.82;;;;;;;5.40;100.00;94926.22;5086822;28;20513;-75
2020/12/27 09:49:20;;;;;;;6.82;5.30;;;;;;;5.48;100.00;94921.69;5087403;28;20391;-74
2020/12/27 09:52:15;;;;;;;6.07;4.82;;;;;;;5.53;100.00;94903.81;5087205;28;20044;-74
2020/12/27 09:54:46;;;;;;;8.48;5.05;;;;;;;5.65;100.00;94900.63;5087306;28;20036;-72
2020/12/27 09:57:13;;;;;;;8.75;6.18;;;;;;;5.72;100.00;94896.25;5087880;28;20048;-71
2020/12/27 09:59:40;;;;;;;11.05;5.93;;;;;;;5.74;100.00;94899.44;5087152;28;20040;-73
2020/12/27 10:02:07;;;;;;;6.20;4.13;;;;;;;5.74;100.00;94914.94;5069624;28;20048;-72
2020/12/27 10:04:33;;;;;;;7.82;4.32;;;;;;;5.77;100.00;94904.22;5088510;28;20036;-73
2020/12/27 10:06:59;;;;;;;6.25;3.92;;;;;;;5.76;100.00;94912.94;5088384;28;20092;-73
2020/12/27 10:09:26;;;;;;;5.78;4.32;;;;;;;5.76;100.00;94900.03;5088218;28;20040;-72
2020/12/27 10:11:52;;;;;;;7.72;4.78;;;;;;;5.79;100.00;94922.13;5086333;28;20039;-72
2020/12/27 10:14:19;;;;;;;6.57;4.88;;;;;;;5.79;100.00;94901.44;5087338;28;20425;-72
2020/12/27 10:16:46;;;;;;;5.95;3.83;;;;;;;5.76;100.00;94894.84;5088207;28;20497;-72
2020/12/27 10:19:13;;;;;;;6.97;4.80;;;;;;;5.79;100.00;94891.88;5083429;28;20105;-72
2020/12/27 10:21:39;;;;;;;6.53;4.68;;;;;;;5.89;100.00;94881.94;5085934;28;20051;-71
2020/12/27 10:24:06;;;;;;;8.05;3.75;;;;;;;5.94;100.00;94882.16;5087740;28;20036;-72
2020/12/27 10:26:32;;;;;;;6.30;3.55;;;;;;;5.80;100.00;94870.22;5086160;28;20040;-73
2020/12/27 10:28:58;;;;;;;4.70;3.33;;;;;;;5.80;100.00;94884.91;5087586;28;20508;-71
2020/12/27 10:31:25;;;;;;;6.03;3.95;;;;;;;5.86;100.00;94882.34;5086402;28;20044;-72
2020/12/27 10:33:51;;;;;;;6.93;3.45;;;;;;;5.85;100.00;94883.34;5087401;28;20393;-72
2020/12/27 10:36:18;;;;;;;6.65;3.20;;;;;;;5.83;100.00;94882.72;5087369;28;20043;-72
2020/12/27 10:38:44;;;;;;;4.75;3.10;;;;;;;5.85;100.00;94864.44;5086707;28;20085;-73
2020/12/27 10:41:20;;;;;;;6.50;3.80;;;;;;;5.92;100.00;94854.88;5086378;28;20063;-73
2020/12/27 10:43:50;;;;;;;5.28;2.92;;;;;;;6.03;100.00;94849.16;5068791;28;20101;-73
2020/12/27 10:46:18;;;;;;;7.47;2.75;;;;;;;5.98;100.00;94842.97;5086911;28;20115;-74
2020/12/27 10:48:45;;;;;;;4.00;2.38;;;;;;;5.91;100.00;94838.59;5086859;28;20043;-72
2020/12/27 10:51:12;;;;;;;3.63;2.20;;;;;;;5.84;100.00;94832.63;5084342;28;20032;-74
2020/12/27 10:53:38;;;;;;;2.90;1.75;;;;;;;5.72;100.00;94839.41;5085355;28;20036;-74
2020/12/27 10:56:06;;;;;;;4.25;2.05;;;;;;;5.55;100.00;94813.97;5084416;28;20046;-74
2020/12/27 10:58:32;;;;;;;2.83;1.95;;;;;;;5.69;100.00;94806.19;5083879;28;20032;-74
2020/12/27 11:00:58;;;;;;;2.58;1.80;;;;;;;5.71;100.00;94817.16;5084911;28;20123;-73
2020/12/27 11:03:25;;;;;;;4.40;2.40;;;;;;;5.61;100.00;94801.25;5084862;28;20042;-73
2020/12/27 11:05:51;;;;;;;3.67;2.35;;;;;;;5.54;100.00;94796.88;5085385;28;20048;-73
2020/12/27 11:08:17;;;;;;;5.43;3.08;;;;;;;5.51;100.00;94781.78;5086891;28;20036;-73
2020/12/27 11:10:44;;;;;;;3.42;2.20;;;;;;;5.63;100.00;94794.09;5087232;28;20036;-73
2020/12/27 11:13:10;;;;;;;3.53;2.20;;;;;;;5.65;100.00;94792.88;5086964;28;20043;-73
2020/12/27 11:15:37;;;;;;;5.78;2.60;;;;;;;5.71;100.00;94791.31;5086965;28;20132;-72
2020/12/27 11:18:05;;;;;;;4.57;2.00;;;;;;;5.75;100.00;94774.41;5084955;28;20054;-74
2020/12/27 11:20:31;;;;;;;3.15;2.20;;;;;;;5.81;100.00;94763.25;5084898;28;20036;-74
2020/12/27 11:22:58;;;;;;;5.60;1.98;;;;;;;5.89;100.00;94741.56;5086862;28;20052;-74
2020/12/27 11:25:25;;;;;;;4.80;1.73;;;;;;;5.85;100.00;94736.03;5084794;28;20513;-74
2020/12/27 11:27:52;;;;;;;2.78;1.88;;;;;;;5.82;100.00;94751.13;5087451;28;20032;-74
2020/12/27 11:30:22;;;;;;;3.13;1.90;;;;;;;5.92;100.00;94741.97;5085657;28;20058;-74
2020/12/27 11:32:48;;;;;;;10.52;3.25;;;;;;;5.86;100.00;94737.59;5085202;28;20469;-74
2020/12/27 11:35:15;;;;;;;9.40;4.95;;;;;;;5.82;100.00;94725.28;5086197;28;20043;-74
2020/12/27 11:37:41;;;;;;;3.00;2.03;;;;;;;5.79;100.00;94718.72;5085560;28;20082;-74
2020/12/27 11:40:08;;;;;;;5.22;2.03;;;;;;;5.77;100.00;94715.56;5086729;28;20040;-74
2020/12/27 11:42:36;;;;;;;4.13;2.25;;;;;;;5.78;100.00;94709.41;5084942;28;20040;-67
2020/12/27 11:45:04;;;;;;;4.00;2.00;;;;;;;5.92;100.00;94702.38;5087483;28;20068;-67
2020/12/27 11:47:30;;;;;;;5.43;2.45;;;;;;;6.09;100.00;94692.41;5088057;28;20047;-67
2020/12/27 11:49:56;;;;;;;4.90;2.13;;;;;;;6.15;100.00;94690.78;5089019;28;20408;-67
2020/12/27 11:52:24;;;;;;;6.75;2.10;;;;;;;6.16;100.00;94695.75;5090582;28;20040;-67
2020/12/27 11:54:51;;;;;;;5.63;2.28;;;;;;;6.27;99.86;94692.50;5090961;28;20040;-67
2020/12/27 11:57:18;;;;;;;3.92;1.80;;;;;;;6.38;99.49;94669.59;5090222;28;20120;-67
2020/12/27 11:59:44;;;;;;;4.93;2.20;;;;;;;6.30;98.79;94650.72;5088785;28;20060;-67